createdAt,value
2022-12-13T00:00:52.215Z,99.99
2022-12-13T00:01:52.302Z,99.99
2022-12-13T00:02:52.186Z,99.99
2022-12-13T00:03:52.241Z,99.99
2022-12-13T00:04:52.156Z,99.99
2022-12-13T00:05:52.155Z,99.99
2022-12-13T00:06:52.132Z,99.99
2022-12-13T00:07:52.423Z,99.99
2022-12-13T00:08:52.101Z,99.99
2022-12-13T00:09:52.082Z,99.99
2022-12-13T00:10:52.352Z,99.99
2022-12-13T00:11:52.131Z,99.99
2022-12-13T00:12:52.057Z,99.99
2022-12-13T00:13:52.440Z,99.99
2022-12-13T00:14:52.033Z,99.99
2022-12-13T00:15:52.033Z,99.99
2022-12-13T00:16:52.147Z,99.99
2022-12-13T00:17:52.014Z,99.99
2022-12-13T00:18:52.024Z,99.99
2022-12-13T00:19:52.360Z,99.99
2022-12-13T00:20:52.011Z,99.99
2022-12-13T00:21:52.494Z,99.99
2022-12-13T00:22:51.980Z,99.99
2022-12-13T00:23:51.971Z,99.99
2022-12-13T00:24:51.955Z,99.99
2022-12-13T00:25:51.939Z,99.99
2022-12-13T00:26:51.945Z,99.99
2022-12-13T00:27:51.926Z,99.99
2022-12-13T00:28:51.902Z,99.99
2022-12-13T00:29:52.734Z,99.99
2022-12-13T00:30:51.919Z,99.99
2022-12-13T00:31:59.557Z,99.99
2022-12-13T00:32:52.937Z,99.99
2022-12-13T00:33:51.902Z,99.99
2022-12-13T00:34:51.831Z,99.99
2022-12-13T00:35:51.823Z,99.99
2022-12-13T00:36:51.820Z,99.99
2022-12-13T00:37:51.835Z,99.99
2022-12-13T00:38:51.798Z,99.99
2022-12-13T00:39:51.856Z,99.99
2022-12-13T00:40:51.787Z,99.99
2022-12-13T00:41:51.773Z,99.99
2022-12-13T00:42:51.801Z,99.99
2022-12-13T00:43:51.748Z,99.99
2022-12-13T00:44:51.756Z,99.99
2022-12-13T00:45:51.776Z,99.99
2022-12-13T00:46:51.788Z,99.99
2022-12-13T00:47:51.739Z,99.99
2022-12-13T00:48:51.700Z,99.99
2022-12-13T00:49:51.731Z,99.99
2022-12-13T00:50:51.681Z,99.99
2022-12-13T00:51:51.673Z,99.99
2022-12-13T00:52:51.664Z,99.99
2022-12-13T00:53:51.665Z,99.99
2022-12-13T00:54:51.661Z,99.99
2022-12-13T00:55:51.625Z,99.99
2022-12-13T00:56:51.636Z,99.99
2022-12-13T00:57:51.633Z,99.99
2022-12-13T00:58:52.320Z,99.99
2022-12-13T00:59:51.587Z,99.99
2022-12-13T01:00:51.587Z,99.99
2022-12-13T01:01:51.736Z,99.99
2022-12-13T01:02:51.579Z,99.99
2022-12-13T01:03:51.568Z,99.99
2022-12-13T01:04:51.532Z,99.99
2022-12-13T01:06:14.187Z,99.99
2022-12-13T01:06:52.528Z,99.99
2022-12-13T01:07:51.583Z,99.99
2022-12-13T01:08:51.503Z,99.99
2022-12-13T01:09:51.510Z,99.99
2022-12-13T01:10:51.474Z,99.99
2022-12-13T01:11:51.465Z,99.99
2022-12-13T01:12:51.487Z,99.99
2022-12-13T01:13:51.451Z,99.99
2022-12-13T01:14:55.955Z,99.99
2022-12-13T01:15:51.423Z,99.99
2022-12-13T01:16:51.468Z,99.99
2022-12-13T01:17:51.419Z,99.99
2022-12-13T01:18:51.408Z,99.99
2022-12-13T01:19:51.381Z,99.99
2022-12-13T01:20:51.378Z,99.99
2022-12-13T01:21:51.396Z,99.99
2022-12-13T01:22:51.378Z,99.99
2022-12-13T01:23:51.370Z,99.99
2022-12-13T01:24:51.342Z,99.99
2022-12-13T01:25:51.337Z,99.99
2022-12-13T01:26:51.330Z,99.99
2022-12-13T01:27:52.323Z,99.99
2022-12-13T01:28:51.300Z,99.99
2022-12-13T01:29:51.291Z,99.99
2022-12-13T01:30:51.323Z,99.99
2022-12-13T01:31:51.274Z,99.99
2022-12-13T01:32:51.262Z,99.99
2022-12-13T01:33:51.262Z,99.99
2022-12-13T01:34:51.240Z,99.99
2022-12-13T01:35:51.220Z,99.99
2022-12-13T01:36:51.214Z,99.99
2022-12-13T01:37:51.717Z,99.99
2022-12-13T01:38:52.220Z,99.99
2022-12-13T01:39:52.188Z,99.99
2022-12-13T01:40:52.161Z,99.99
2022-12-13T01:41:52.198Z,99.99
2022-12-13T01:42:51.156Z,99.99
2022-12-13T01:43:51.140Z,99.99
2022-12-13T01:44:51.143Z,99.99
2022-12-13T01:45:51.181Z,99.99
2022-12-13T01:46:51.110Z,99.99
2022-12-13T01:47:51.125Z,99.99
2022-12-13T01:48:51.094Z,99.99
2022-12-13T01:49:51.079Z,99.99
2022-12-13T01:50:51.086Z,99.99
2022-12-13T01:51:51.076Z,99.99
2022-12-13T01:52:51.066Z,99.99
2022-12-13T01:53:51.044Z,99.99
2022-12-13T01:54:51.038Z,99.99
2022-12-13T01:55:51.015Z,99.99
2022-12-13T01:56:51.019Z,99.99
2022-12-13T01:57:51.037Z,99.99
2022-12-13T01:58:51.001Z,99.99
2022-12-13T01:59:50.985Z,99.99
2022-12-13T02:00:50.973Z,99.99
2022-12-13T02:01:50.958Z,99.99
2022-12-13T02:02:50.974Z,99.99
2022-12-13T02:03:50.940Z,99.99
2022-12-13T02:04:50.986Z,99.99
2022-12-13T02:05:50.918Z,99.99
2022-12-13T02:06:50.906Z,99.99
2022-12-13T02:07:50.979Z,99.99
2022-12-13T02:08:50.899Z,99.99
2022-12-13T02:09:56.794Z,99.99
2022-12-13T02:10:51.869Z,99.99
2022-12-13T02:11:50.863Z,99.99
2022-12-13T02:12:50.869Z,99.99
2022-12-13T02:13:50.971Z,99.99
2022-12-13T02:14:50.822Z,99.99
2022-12-13T02:15:50.852Z,99.99
2022-12-13T02:16:50.804Z,99.99
2022-12-13T02:17:50.845Z,99.99
2022-12-13T02:18:50.818Z,99.99
2022-12-13T02:19:50.803Z,99.99
2022-12-13T02:20:50.766Z,99.99
2022-12-13T02:21:50.761Z,99.99
2022-12-13T02:22:50.765Z,99.99
2022-12-13T02:23:50.762Z,99.99
2022-12-13T02:24:50.727Z,99.99
2022-12-13T02:25:50.724Z,99.99
2022-12-13T02:26:50.776Z,99.99
2022-12-13T02:27:50.739Z,99.99
2022-12-13T02:28:50.714Z,99.99
2022-12-13T02:29:50.688Z,99.99
2022-12-13T02:30:50.738Z,99.99
2022-12-13T02:31:50.657Z,99.99
2022-12-13T02:32:50.641Z,99.99
2022-12-13T02:33:50.640Z,99.99
2022-12-13T02:34:50.650Z,99.99
2022-12-13T02:35:52.934Z,99.99
2022-12-13T02:36:50.592Z,99.99
2022-12-13T02:37:50.596Z,99.99
2022-12-13T02:38:50.620Z,99.99
2022-12-13T02:39:50.577Z,99.99
2022-12-13T02:40:50.572Z,99.99
2022-12-13T02:41:50.569Z,99.99
2022-12-13T02:42:50.577Z,99.99
2022-12-13T02:43:50.537Z,99.99
2022-12-13T02:44:50.522Z,99.99
2022-12-13T02:45:50.522Z,99.99
2022-12-13T02:46:50.535Z,99.99
2022-12-13T02:47:50.540Z,99.99
2022-12-13T02:48:50.492Z,99.99
2022-12-13T02:49:50.463Z,99.99
2022-12-13T02:50:50.487Z,99.99
2022-12-13T02:51:50.453Z,99.99
2022-12-13T02:52:50.451Z,99.99
2022-12-13T02:53:50.439Z,99.99
2022-12-13T02:54:50.438Z,99.99
2022-12-13T02:55:50.401Z,99.99
2022-12-13T02:56:50.425Z,99.99
2022-12-13T02:57:50.398Z,99.99
2022-12-13T02:58:50.375Z,99.99
2022-12-13T02:59:52.650Z,99.99
2022-12-13T03:00:50.365Z,99.99
2022-12-13T03:01:50.452Z,99.99
2022-12-13T03:02:50.558Z,99.99
2022-12-13T03:03:50.393Z,99.99
2022-12-13T03:04:50.320Z,99.99
2022-12-13T03:05:50.313Z,99.99
2022-12-13T03:06:50.295Z,99.99
2022-12-13T03:07:50.385Z,99.99
2022-12-13T03:08:50.277Z,99.99
2022-12-13T03:09:50.281Z,99.99
2022-12-13T03:10:50.251Z,99.99
2022-12-13T03:11:50.249Z,99.99
2022-12-13T03:12:50.281Z,99.99
2022-12-13T03:13:50.222Z,99.99
2022-12-13T03:14:50.228Z,99.99
2022-12-13T03:15:50.242Z,99.99
2022-12-13T03:16:50.192Z,99.99
2022-12-13T03:17:50.216Z,99.99
2022-12-13T03:18:50.310Z,99.99
2022-12-13T03:19:50.188Z,99.99
2022-12-13T03:20:50.158Z,99.99
2022-12-13T03:21:50.153Z,99.99
2022-12-13T03:22:50.157Z,99.99
2022-12-13T03:23:50.146Z,99.99
2022-12-13T03:24:50.113Z,99.99
2022-12-13T03:25:50.159Z,99.99
2022-12-13T03:26:50.118Z,99.99
2022-12-13T03:27:50.105Z,99.99
2022-12-13T03:28:50.077Z,99.99
2022-12-13T03:29:50.101Z,99.99
2022-12-13T03:30:50.127Z,99.99
2022-12-13T03:31:50.058Z,99.99
2022-12-13T03:32:50.064Z,99.99
2022-12-13T03:33:50.086Z,99.99
2022-12-13T03:35:00.530Z,99.99
2022-12-13T03:35:51.003Z,99.99
2022-12-13T03:36:50.008Z,99.99
2022-12-13T03:37:50.007Z,99.99
2022-12-13T03:38:49.970Z,99.99
2022-12-13T03:39:49.973Z,99.99
2022-12-13T03:40:49.957Z,99.99
2022-12-13T03:41:49.963Z,99.99
2022-12-13T03:42:49.946Z,99.99
2022-12-13T03:43:49.937Z,99.99
2022-12-13T03:44:49.914Z,99.99
2022-12-13T03:45:49.914Z,99.99
2022-12-13T03:46:49.969Z,99.99
2022-12-13T03:47:49.884Z,99.99
2022-12-13T03:48:49.896Z,99.99
2022-12-13T03:49:54.396Z,99.99
2022-12-13T03:50:49.872Z,99.99
2022-12-13T03:51:49.849Z,99.99
2022-12-13T03:52:49.937Z,99.99
2022-12-13T03:53:49.845Z,99.99
2022-12-13T03:54:49.831Z,99.99
2022-12-13T03:55:49.827Z,99.99
2022-12-13T03:56:49.791Z,99.99
2022-12-13T03:57:49.803Z,99.99
2022-12-13T03:58:49.851Z,99.99
2022-12-13T03:59:49.757Z,99.99
2022-12-13T04:00:49.773Z,99.99
2022-12-13T04:01:49.757Z,99.99
2022-12-13T04:02:49.815Z,99.99
2022-12-13T04:03:49.720Z,99.99
2022-12-13T04:04:49.713Z,99.99
2022-12-13T04:05:49.797Z,99.99
2022-12-13T04:06:49.724Z,99.99
2022-12-13T04:07:49.809Z,99.99
2022-12-13T04:08:51.200Z,99.99
2022-12-13T04:09:49.663Z,99.99
2022-12-13T04:10:49.658Z,99.99
2022-12-13T04:11:49.649Z,99.99
2022-12-13T04:12:49.642Z,99.99
2022-12-13T04:13:49.637Z,99.99
2022-12-13T04:14:49.605Z,99.99
2022-12-13T04:15:49.669Z,99.99
2022-12-13T04:16:49.590Z,99.99
2022-12-13T04:17:50.976Z,99.99
2022-12-13T04:18:49.624Z,99.99
2022-12-13T04:19:49.558Z,99.99
2022-12-13T04:20:49.559Z,99.99
2022-12-13T04:21:49.579Z,99.99
2022-12-13T04:22:49.529Z,99.99
2022-12-13T04:23:49.531Z,99.99
2022-12-13T04:24:49.535Z,99.99
2022-12-13T04:25:49.503Z,99.99
2022-12-13T04:26:49.496Z,99.99
2022-12-13T04:27:49.484Z,99.99
2022-12-13T04:28:54.417Z,99.99
2022-12-13T04:29:50.484Z,99.99
2022-12-13T04:30:53.738Z,99.99
2022-12-13T04:31:49.489Z,99.99
2022-12-13T04:32:49.426Z,99.99
2022-12-13T04:33:49.427Z,99.99
2022-12-13T04:34:49.423Z,99.99
2022-12-13T04:35:49.425Z,99.99
2022-12-13T04:36:49.383Z,99.99
2022-12-13T04:37:49.414Z,99.99
2022-12-13T04:38:49.372Z,99.99
2022-12-13T04:39:49.381Z,99.99
2022-12-13T04:40:49.374Z,99.99
2022-12-13T04:41:49.341Z,99.99
2022-12-13T04:42:49.373Z,99.99
2022-12-13T04:43:49.322Z,99.99
2022-12-13T04:44:49.311Z,99.99
2022-12-13T04:45:49.326Z,99.99
2022-12-13T04:46:49.293Z,99.99
2022-12-13T04:47:49.287Z,99.99
2022-12-13T04:48:49.298Z,99.99
2022-12-13T04:49:49.263Z,99.99
2022-12-13T04:50:49.294Z,99.99
2022-12-13T04:51:49.238Z,99.99
2022-12-13T04:52:49.252Z,99.99
2022-12-13T04:53:49.228Z,99.99
2022-12-13T04:54:49.221Z,99.99
2022-12-13T04:55:50.270Z,99.99
2022-12-13T04:56:49.197Z,99.99
2022-12-13T04:57:49.226Z,99.99
2022-12-13T04:58:49.181Z,99.99
2022-12-13T04:59:49.175Z,99.99
2022-12-13T05:00:49.232Z,99.99
2022-12-13T05:01:49.151Z,99.99
2022-12-13T05:02:49.351Z,99.99
2022-12-13T05:03:49.118Z,99.99
2022-12-13T05:04:49.126Z,99.99
2022-12-13T05:05:50.100Z,99.99
2022-12-13T05:06:49.093Z,99.99
2022-12-13T05:07:49.148Z,99.99
2022-12-13T05:08:49.062Z,99.99
2022-12-13T05:09:49.065Z,99.99
2022-12-13T05:10:49.071Z,99.99
2022-12-13T05:11:49.094Z,99.99
2022-12-13T05:12:49.048Z,99.99
2022-12-13T05:13:49.016Z,99.99
2022-12-13T05:14:49.013Z,99.99
2022-12-13T05:15:54.973Z,99.99
2022-12-13T05:16:50.051Z,99.99
2022-12-13T05:17:49.000Z,99.99
2022-12-13T05:18:48.968Z,99.99
2022-12-13T05:19:48.976Z,99.99
2022-12-13T05:20:48.952Z,99.99
2022-12-13T05:21:48.947Z,99.99
2022-12-13T05:22:48.956Z,99.99
2022-12-13T05:23:48.922Z,99.99
2022-12-13T05:24:48.906Z,99.99
2022-12-13T05:25:48.908Z,99.99
2022-12-13T05:26:48.902Z,99.99
2022-12-13T05:27:48.921Z,99.99
2022-12-13T05:28:49.877Z,99.99
2022-12-13T05:29:48.868Z,99.99
2022-12-13T05:30:48.854Z,99.99
2022-12-13T05:31:48.935Z,99.99
2022-12-13T05:32:48.859Z,99.99
2022-12-13T05:33:48.821Z,99.99
2022-12-13T05:34:48.848Z,99.99
2022-12-13T05:35:48.791Z,99.99
2022-12-13T05:36:48.785Z,99.99
2022-12-13T05:37:53.562Z,99.99
2022-12-13T05:38:49.766Z,99.99
2022-12-13T05:39:48.771Z,99.99
2022-12-13T05:40:48.752Z,99.99
2022-12-13T05:41:48.747Z,99.99
2022-12-13T05:42:48.771Z,99.99
2022-12-13T05:43:48.719Z,99.99
2022-12-13T05:44:48.712Z,99.99
2022-12-13T05:45:48.818Z,99.99
2022-12-13T05:46:48.688Z,99.99
2022-12-13T05:47:48.704Z,99.99
2022-12-13T05:48:48.667Z,99.99
2022-12-13T05:49:48.656Z,99.99
2022-12-13T05:50:48.660Z,99.99
2022-12-13T05:51:48.638Z,99.99
2022-12-13T05:52:48.673Z,99.99
2022-12-13T05:53:53.281Z,99.99
2022-12-13T05:54:48.605Z,99.99
2022-12-13T05:55:48.623Z,99.99
2022-12-13T05:56:48.584Z,99.99
2022-12-13T05:57:50.641Z,99.99
2022-12-13T05:58:48.568Z,99.99
2022-12-13T05:59:48.546Z,99.99
2022-12-13T06:00:48.539Z,99.99
2022-12-13T06:01:48.561Z,99.99
2022-12-13T06:02:48.703Z,99.99
2022-12-13T06:03:48.632Z,99.99
2022-12-13T06:04:48.558Z,99.99
2022-12-13T06:05:48.500Z,99.99
2022-12-13T06:06:48.484Z,99.99
2022-12-13T06:07:52.221Z,99.99
2022-12-13T06:08:49.505Z,99.99
2022-12-13T06:09:48.448Z,99.99
2022-12-13T06:10:48.468Z,99.99
2022-12-13T06:11:48.432Z,99.99
2022-12-13T06:12:48.449Z,99.99
2022-12-13T06:13:48.424Z,99.99
2022-12-13T06:14:48.410Z,99.99
2022-12-13T06:15:48.422Z,99.99
2022-12-13T06:16:48.434Z,99.99
2022-12-13T06:17:48.411Z,99.99
2022-12-13T06:18:48.366Z,99.99
2022-12-13T06:19:48.367Z,99.99
2022-12-13T06:20:48.347Z,99.99
2022-12-13T06:21:48.360Z,99.99
2022-12-13T06:22:48.344Z,99.99
2022-12-13T06:23:48.306Z,99.99
2022-12-13T06:24:48.303Z,99.99
2022-12-13T06:25:51.615Z,99.99
2022-12-13T06:26:48.311Z,99.99
2022-12-13T06:27:48.305Z,99.99
2022-12-13T06:28:48.272Z,99.99
2022-12-13T06:29:48.256Z,99.99
2022-12-13T06:30:48.296Z,99.99
2022-12-13T06:31:48.235Z,99.99
2022-12-13T06:32:48.273Z,99.99
2022-12-13T06:33:48.200Z,99.99
2022-12-13T06:34:48.203Z,99.99
2022-12-13T06:35:48.205Z,99.99
2022-12-13T06:36:48.191Z,99.99
2022-12-13T06:37:48.248Z,99.99
2022-12-13T06:38:48.168Z,99.99
2022-12-13T06:39:48.157Z,99.99
2022-12-13T06:40:48.162Z,99.99
2022-12-13T06:41:48.142Z,99.99
2022-12-13T06:42:48.132Z,99.99
2022-12-13T06:43:48.123Z,99.99
2022-12-13T06:44:48.100Z,99.99
2022-12-13T06:45:49.137Z,99.99
2022-12-13T06:46:48.101Z,99.99
2022-12-13T06:47:48.102Z,99.99
2022-12-13T06:48:48.100Z,99.99
2022-12-13T06:49:48.071Z,99.99
2022-12-13T06:50:48.073Z,99.99
2022-12-13T06:51:48.034Z,99.99
2022-12-13T06:52:48.029Z,99.99
2022-12-13T06:53:48.034Z,99.99
2022-12-13T06:54:48.021Z,99.99
2022-12-13T06:55:47.983Z,99.99
2022-12-13T06:56:47.987Z,99.99
2022-12-13T06:57:47.971Z,99.99
2022-12-13T06:58:48.053Z,99.99
2022-12-13T06:59:47.949Z,99.99
2022-12-13T07:00:49.000Z,99.99
2022-12-13T07:01:50.586Z,99.99
2022-12-13T07:02:48.150Z,99.99
2022-12-13T07:03:47.939Z,99.99
2022-12-13T07:04:47.920Z,99.99
2022-12-13T07:05:47.907Z,99.99
2022-12-13T07:06:47.905Z,99.99
2022-12-13T07:07:48.192Z,99.99
2022-12-13T07:08:48.136Z,99.99
2022-12-13T07:09:47.896Z,99.99
2022-12-13T07:10:47.846Z,99.99
2022-12-13T07:11:52.121Z,99.99
2022-12-13T07:12:47.847Z,99.99
2022-12-13T07:13:47.815Z,99.99
2022-12-13T07:14:47.802Z,99.99
2022-12-13T07:15:47.817Z,99.99
2022-12-13T07:16:47.795Z,99.99
2022-12-13T07:17:47.803Z,99.99
2022-12-13T07:18:47.769Z,99.99
2022-12-13T07:19:48.208Z,99.99
2022-12-13T07:20:47.766Z,99.99
2022-12-13T07:21:47.723Z,99.99
2022-12-13T07:22:51.200Z,99.99
2022-12-13T07:23:48.706Z,99.99
2022-12-13T07:24:48.707Z,99.99
2022-12-13T07:25:47.700Z,99.99
2022-12-13T07:26:47.677Z,99.99
2022-12-13T07:27:47.727Z,99.99
2022-12-13T07:28:52.904Z,99.99
2022-12-13T07:29:48.661Z,99.99
2022-12-13T07:30:47.737Z,99.99
2022-12-13T07:31:47.639Z,99.99
2022-12-13T07:32:47.642Z,99.99
2022-12-13T07:33:47.617Z,99.99
2022-12-13T07:34:47.607Z,99.99
2022-12-13T07:35:47.601Z,99.99
2022-12-13T07:36:48.644Z,99.99
2022-12-13T07:37:47.613Z,99.99
2022-12-13T07:38:47.572Z,99.99
2022-12-13T07:39:47.547Z,99.99
2022-12-13T07:40:47.620Z,99.99
2022-12-13T07:41:47.518Z,99.99
2022-12-13T07:42:47.534Z,99.99
2022-12-13T07:43:47.515Z,99.99
2022-12-13T07:44:48.558Z,99.99
2022-12-13T07:45:47.561Z,99.99
2022-12-13T07:46:47.543Z,99.99
2022-12-13T07:47:47.479Z,99.99
2022-12-13T07:48:47.459Z,99.99
2022-12-13T07:49:47.471Z,99.99
2022-12-13T07:50:54.429Z,99.99
2022-12-13T07:51:48.669Z,99.99
2022-12-13T07:52:47.448Z,99.99
2022-12-13T07:53:47.427Z,99.99
2022-12-13T07:54:47.410Z,99.99
2022-12-13T07:55:47.401Z,99.99
2022-12-13T07:56:47.380Z,99.99
2022-12-13T07:57:47.382Z,99.99
2022-12-13T07:58:47.362Z,99.99
2022-12-13T07:59:47.345Z,99.99
2022-12-13T08:00:47.363Z,99.99
2022-12-13T08:01:47.375Z,99.99
2022-12-13T08:02:47.351Z,99.99
2022-12-13T08:03:47.313Z,99.99
2022-12-13T08:04:54.980Z,99.99
2022-12-13T08:05:48.369Z,99.99
2022-12-13T08:06:47.323Z,99.99
2022-12-13T08:07:47.274Z,99.99
2022-12-13T08:08:47.258Z,99.99
2022-12-13T08:09:52.616Z,99.99
2022-12-13T08:10:48.327Z,99.99
2022-12-13T08:11:47.233Z,99.99
2022-12-13T08:12:47.238Z,99.99
2022-12-13T08:13:47.237Z,99.99
2022-12-13T08:14:47.209Z,99.99
2022-12-13T08:15:48.232Z,99.99
2022-12-13T08:16:47.309Z,99.99
2022-12-13T08:17:47.202Z,99.99
2022-12-13T08:18:47.147Z,99.99
2022-12-13T08:19:47.145Z,99.99
2022-12-13T08:20:47.167Z,99.99
2022-12-13T08:21:56.249Z,99.99
2022-12-13T08:22:49.499Z,99.99
2022-12-13T08:23:47.141Z,99.99
2022-12-13T08:24:47.096Z,99.99
2022-12-13T08:25:47.078Z,99.99
2022-12-13T08:26:47.071Z,99.99
2022-12-13T08:27:47.085Z,99.99
2022-12-13T08:28:47.112Z,99.99
2022-12-13T08:29:47.110Z,99.99
2022-12-13T08:30:47.032Z,99.99
2022-12-13T08:31:47.055Z,99.99
2022-12-13T08:32:47.019Z,99.99
2022-12-13T08:33:47.001Z,99.99
2022-12-13T08:34:46.997Z,99.99
2022-12-13T08:35:46.998Z,99.99
2022-12-13T08:36:46.990Z,99.99
2022-12-13T08:37:47.002Z,99.99
2022-12-13T08:38:46.967Z,99.99
2022-12-13T08:39:46.935Z,99.99
2022-12-13T08:40:46.941Z,99.99
2022-12-13T08:41:46.918Z,99.99
2022-12-13T08:42:46.966Z,99.99
2022-12-13T08:43:46.900Z,99.99
2022-12-13T08:44:46.949Z,99.99
2022-12-13T08:45:46.884Z,99.99
2022-12-13T08:46:46.882Z,99.99
2022-12-13T08:47:46.865Z,99.99
2022-12-13T08:48:46.933Z,99.99
2022-12-13T08:49:46.862Z,99.99
2022-12-13T08:50:46.844Z,99.99
2022-12-13T08:51:46.838Z,99.99
2022-12-13T08:52:46.843Z,99.99
2022-12-13T08:53:46.797Z,99.99
2022-12-13T08:54:46.798Z,99.99
2022-12-13T08:55:46.794Z,99.99
2022-12-13T08:56:46.769Z,99.99
2022-12-13T08:57:46.793Z,99.99
2022-12-13T08:58:46.759Z,99.99
2022-12-13T08:59:46.739Z,99.99
2022-12-13T09:00:46.786Z,99.99
2022-12-13T09:01:46.806Z,99.99
2022-12-13T09:02:47.779Z,99.99
2022-12-13T09:03:46.718Z,99.99
2022-12-13T09:04:46.698Z,99.99
2022-12-13T09:05:46.707Z,99.99
2022-12-13T09:06:46.712Z,99.99
2022-12-13T09:07:46.684Z,99.99
2022-12-13T09:08:51.749Z,99.99
2022-12-13T09:09:47.652Z,99.99
2022-12-13T09:10:47.651Z,99.99
2022-12-13T09:11:46.616Z,99.91
2022-12-13T09:12:46.686Z,99.80
2022-12-13T09:13:46.583Z,99.38
2022-12-13T09:14:46.669Z,99.99
2022-12-13T09:15:46.778Z,99.91
2022-12-13T09:16:50.864Z,99.80
2022-12-13T09:17:52.527Z,99.87
2022-12-13T09:18:47.549Z,99.99
2022-12-13T09:19:47.585Z,99.99
2022-12-13T09:20:46.616Z,99.87
2022-12-13T09:21:46.533Z,99.66
2022-12-13T09:22:46.533Z,99.66
2022-12-13T09:23:46.576Z,99.44
2022-12-13T09:24:49.919Z,99.60
2022-12-13T09:25:52.609Z,99.70
2022-12-13T09:26:47.516Z,99.80
2022-12-13T09:27:46.482Z,99.70
2022-12-13T09:28:46.435Z,99.55
2022-12-13T09:29:46.436Z,99.44
2022-12-13T09:30:46.432Z,99.49
2022-12-13T09:31:52.641Z,99.66
2022-12-13T09:32:47.445Z,99.44
2022-12-13T09:33:46.399Z,99.51
2022-12-13T09:34:46.492Z,99.51
2022-12-13T09:35:46.393Z,99.35
2022-12-13T09:36:46.356Z,99.35
2022-12-13T09:37:46.434Z,98.93
2022-12-13T09:38:46.335Z,98.79
2022-12-13T09:39:46.325Z,97.94
2022-12-13T09:40:46.319Z,97.52
2022-12-13T09:41:46.320Z,96.83
2022-12-13T09:42:46.316Z,97.25
2022-12-13T09:43:46.681Z,97.35
2022-12-13T09:44:51.577Z,96.93
2022-12-13T09:45:47.293Z,98.19
2022-12-13T09:46:46.338Z,97.45
2022-12-13T09:47:47.213Z,98.05
2022-12-13T09:48:48.399Z,97.35
2022-12-13T09:49:51.678Z,98.09
2022-12-13T09:50:57.903Z,97.35
2022-12-13T09:51:55.271Z,98.09
2022-12-13T09:52:47.214Z,98.36
2022-12-13T09:53:46.181Z,98.43
2022-12-13T09:54:48.773Z,96.89
2022-12-13T09:55:46.161Z,97.20
2022-12-13T09:56:46.152Z,97.20
2022-12-13T09:57:46.160Z,96.89
2022-12-13T09:58:46.141Z,96.47
2022-12-13T09:59:46.121Z,96.36
2022-12-13T10:00:46.151Z,95.94
2022-12-13T10:01:46.146Z,96.36
2022-12-13T10:02:46.117Z,96.67
2022-12-13T10:03:46.086Z,95.83
2022-12-13T10:04:46.082Z,96.25
2022-12-13T10:05:46.064Z,96.30
2022-12-13T10:06:46.051Z,96.41
2022-12-13T10:07:46.088Z,96.87
2022-12-13T10:08:46.026Z,97.45
2022-12-13T10:09:46.017Z,97.45
2022-12-13T10:10:46.008Z,97.19
2022-12-13T10:11:50.385Z,97.25
2022-12-13T10:12:46.037Z,97.56
2022-12-13T10:13:45.992Z,97.35
2022-12-13T10:14:45.967Z,97.03
2022-12-13T10:15:45.957Z,97.25
2022-12-13T10:16:46.012Z,97.20
2022-12-13T10:17:50.146Z,97.09
2022-12-13T10:18:46.942Z,97.16
2022-12-13T10:19:45.916Z,96.73
2022-12-13T10:20:45.995Z,96.69
2022-12-13T10:21:45.894Z,97.01
2022-12-13T10:23:07.869Z,96.97
2022-12-13T10:24:23.222Z,96.33
2022-12-13T10:24:46.857Z,96.33
2022-12-13T10:25:45.901Z,96.39
2022-12-13T10:26:46.896Z,96.08
2022-12-13T10:27:45.871Z,95.60
2022-12-13T10:28:45.856Z,94.44
2022-12-13T10:29:45.816Z,94.76
2022-12-13T10:30:46.602Z,94.69
2022-12-13T10:31:45.921Z,94.23
2022-12-13T10:32:45.801Z,93.95
2022-12-13T10:33:45.784Z,93.60
2022-12-13T10:34:45.765Z,94.23
2022-12-13T10:35:45.763Z,94.27
2022-12-13T10:36:45.739Z,93.85
2022-12-13T10:37:45.746Z,94.59
2022-12-13T10:38:45.726Z,93.74
2022-12-13T10:39:45.719Z,93.99
2022-12-13T10:40:45.703Z,94.80
2022-12-13T10:41:45.686Z,95.53
2022-12-13T10:42:45.684Z,95.75
2022-12-13T10:43:45.672Z,96.69
2022-12-13T10:44:45.651Z,96.17
2022-12-13T10:45:45.681Z,96.06
2022-12-13T10:46:45.645Z,96.17
2022-12-13T10:47:45.650Z,96.27
2022-12-13T10:48:45.616Z,95.64
2022-12-13T10:49:45.614Z,95.95
2022-12-13T10:50:45.646Z,96.06
2022-12-13T10:51:45.587Z,96.86
2022-12-13T10:52:45.586Z,96.06
2022-12-13T10:53:47.510Z,96.27
2022-12-13T10:54:48.456Z,95.11
2022-12-13T10:55:45.567Z,95.11
2022-12-13T10:56:45.533Z,96.27
2022-12-13T10:57:45.528Z,96.17
2022-12-13T10:58:45.514Z,96.23
2022-12-13T10:59:45.496Z,95.91
2022-12-13T11:00:45.575Z,96.50
2022-12-13T11:01:45.495Z,96.35
2022-12-13T11:02:45.529Z,94.98
2022-12-13T11:03:45.467Z,95.40
2022-12-13T11:04:45.452Z,95.09
2022-12-13T11:05:45.450Z,94.60
2022-12-13T11:06:45.434Z,94.67
2022-12-13T11:07:45.463Z,94.08
2022-12-13T11:08:45.416Z,94.67
2022-12-13T11:09:45.398Z,94.98
2022-12-13T11:10:46.384Z,94.78
2022-12-13T11:11:45.399Z,94.67
2022-12-13T11:12:45.388Z,94.29
2022-12-13T11:13:45.366Z,94.44
2022-12-13T11:14:45.345Z,94.12
2022-12-13T11:15:45.331Z,94.44
2022-12-13T11:16:45.351Z,94.27
2022-12-13T11:17:45.339Z,94.76
2022-12-13T11:18:45.312Z,95.39
2022-12-13T11:19:45.331Z,94.44
2022-12-13T11:20:46.106Z,95.55
2022-12-13T11:21:45.271Z,95.24
2022-12-13T11:22:45.281Z,95.72
2022-12-13T11:23:45.255Z,94.98
2022-12-13T11:24:45.252Z,94.52
2022-12-13T11:25:45.233Z,94.62
2022-12-13T11:26:47.782Z,93.47
2022-12-13T11:27:45.250Z,94.56
2022-12-13T11:28:45.465Z,94.52
2022-12-13T11:29:45.189Z,94.27
2022-12-13T11:30:45.177Z,94.17
2022-12-13T11:31:45.221Z,94.06
2022-12-13T11:32:45.176Z,91.58
2022-12-13T11:33:48.452Z,91.89
2022-12-13T11:34:45.139Z,92.27
2022-12-13T11:35:45.136Z,92.67
2022-12-13T11:36:45.118Z,92.88
2022-12-13T11:37:45.148Z,93.93
2022-12-13T11:38:45.108Z,93.93
2022-12-13T11:39:45.088Z,93.93
2022-12-13T11:40:45.084Z,92.99
2022-12-13T11:41:45.066Z,92.82
2022-12-13T11:42:46.615Z,92.92
2022-12-13T11:43:45.065Z,94.44
2022-12-13T11:44:48.017Z,95.07
2022-12-13T11:45:45.108Z,94.34
2022-12-13T11:46:45.021Z,94.44
2022-12-13T11:47:45.029Z,93.98
2022-12-13T11:48:45.009Z,92.96
2022-12-13T11:49:44.984Z,92.12
2022-12-13T11:50:44.967Z,92.65
2022-12-13T11:51:44.964Z,92.50
2022-12-13T11:52:44.968Z,93.13
2022-12-13T11:53:44.955Z,92.71
2022-12-13T11:54:44.930Z,92.88
2022-12-13T11:55:44.925Z,93.09
2022-12-13T11:56:44.930Z,92.46
2022-12-13T11:57:44.912Z,91.41
2022-12-13T11:59:02.597Z,91.09
2022-12-13T11:59:45.904Z,91.83
2022-12-13T12:00:44.891Z,92.88
2022-12-13T12:01:44.869Z,92.46
2022-12-13T12:02:44.912Z,93.09
2022-12-13T12:03:44.890Z,92.84
2022-12-13T12:04:44.832Z,91.47
2022-12-13T12:05:44.821Z,92.31
2022-12-13T12:06:44.808Z,91.89
2022-12-13T12:08:12.658Z,90.94
2022-12-13T12:08:46.244Z,90.99
2022-12-13T12:09:44.775Z,92.04
2022-12-13T12:10:49.780Z,92.67
2022-12-13T12:11:45.762Z,92.67
2022-12-13T12:12:44.765Z,91.93
2022-12-13T12:13:51.412Z,92.14
2022-12-13T12:14:45.786Z,93.09
2022-12-13T12:15:44.803Z,92.31
2022-12-13T12:16:44.718Z,92.38
2022-12-13T12:17:44.825Z,91.60
2022-12-13T12:18:44.680Z,90.86
2022-12-13T12:19:44.668Z,91.07
2022-12-13T12:20:44.751Z,90.09
2022-12-13T12:22:13.354Z,89.39
2022-12-13T12:22:45.680Z,89.29
2022-12-13T12:23:51.040Z,89.22
2022-12-13T12:24:45.639Z,91.05
2022-12-13T12:25:44.608Z,89.62
2022-12-13T12:26:44.612Z,90.67
2022-12-13T12:27:44.605Z,91.20
2022-12-13T12:28:44.646Z,90.19
2022-12-13T12:29:44.612Z,91.13
2022-12-13T12:30:44.594Z,92.19
2022-12-13T12:31:50.573Z,92.04
2022-12-13T12:32:45.545Z,91.41
2022-12-13T12:33:44.537Z,90.63
2022-12-13T12:34:44.518Z,89.26
2022-12-13T12:35:46.205Z,89.05
2022-12-13T12:36:44.497Z,89.54
2022-12-13T12:37:44.501Z,90.69
2022-12-13T12:38:44.468Z,90.02
2022-12-13T12:39:44.485Z,89.71
2022-12-13T12:41:15.121Z,89.87
2022-12-13T12:41:45.853Z,89.07
2022-12-13T12:45:54.554Z,90.17
2022-12-13T12:46:05.617Z,90.59
2022-12-13T12:47:32.613Z,90.17
2022-12-13T12:49:05.733Z,90.23
2022-12-13T12:50:04.457Z,89.64
2022-12-13T12:53:24.465Z,88.05
2022-12-13T12:54:31.990Z,87.67
2022-12-13T12:55:25.326Z,88.47
2022-12-13T12:56:24.313Z,88.62
2022-12-13T12:57:24.319Z,89.14
2022-12-13T12:58:24.664Z,89.67